createdAt,value
2017-11-03T00:00:08.297Z,24.93
2017-11-03T00:02:35.733Z,24.17
2017-11-03T00:05:03.161Z,25.07
2017-11-03T00:07:31.372Z,23.07
2017-11-03T00:09:58.808Z,24.57
2017-11-03T00:12:26.251Z,23.30
2017-11-03T00:14:53.684Z,25.80
2017-11-03T00:17:21.169Z,27.20
2017-11-03T00:19:48.608Z,25.20
2017-11-03T00:22:16.035Z,24.80
2017-11-03T00:24:43.480Z,25.50
2017-11-03T00:27:10.922Z,23.60
2017-11-03T00:29:38.592Z,23.63
2017-11-03T00:32:06.029Z,22.90
2017-11-03T00:34:33.460Z,24.13
2017-11-03T00:37:00.891Z,24.10
2017-11-03T00:39:28.337Z,27.83
2017-11-03T00:41:55.777Z,25.80
2017-11-03T00:44:23.216Z,26.17
2017-11-03T00:46:50.648Z,25.67
2017-11-03T00:49:18.089Z,25.73
2017-11-03T00:51:45.525Z,27.20
2017-11-03T00:54:12.964Z,25.17
2017-11-03T00:56:40.394Z,27.60
2017-11-03T00:59:07.820Z,26.03
2017-11-03T01:01:35.255Z,26.80
2017-11-03T01:04:03.448Z,26.80
2017-11-03T01:06:30.888Z,27.20
2017-11-03T01:08:58.332Z,25.70
2017-11-03T01:11:25.767Z,26.90
2017-11-03T01:13:53.208Z,27.30
2017-11-03T01:16:20.666Z,26.90
2017-11-03T01:18:48.105Z,29.67
2017-11-03T01:21:15.548Z,27.97
2017-11-03T01:23:42.976Z,29.53
2017-11-03T01:26:10.440Z,29.50
2017-11-03T01:28:38.645Z,28.03
2017-11-03T01:31:06.092Z,27.70
2017-11-03T01:33:33.519Z,26.00
2017-11-03T01:36:00.961Z,23.13
2017-11-03T01:38:28.399Z,24.70
2017-11-03T01:40:55.840Z,22.03
2017-11-03T01:43:23.281Z,24.17
2017-11-03T01:45:50.724Z,25.20
2017-11-03T01:48:18.164Z,26.00
2017-11-03T01:50:46.359Z,25.40
2017-11-03T01:53:13.795Z,23.30
2017-11-03T01:55:41.220Z,25.20
2017-11-03T01:58:08.660Z,27.17
2017-11-03T02:00:36.097Z,26.90
2017-11-03T02:03:03.535Z,26.40
2017-11-03T02:05:30.964Z,25.47
2017-11-03T02:07:59.187Z,27.90
2017-11-03T02:10:26.642Z,27.90
2017-11-03T02:12:54.076Z,25.73
2017-11-03T02:15:21.517Z,27.30
2017-11-03T02:17:48.939Z,28.40
2017-11-03T02:20:16.406Z,27.17
2017-11-03T02:22:44.604Z,28.57
2017-11-03T02:25:12.828Z,27.60
2017-11-03T02:27:40.248Z,27.67
2017-11-03T02:30:07.689Z,26.57
2017-11-03T02:32:35.900Z,26.17
2017-11-03T02:35:03.345Z,25.57
2017-11-03T02:37:30.778Z,25.93
2017-11-03T02:39:58.212Z,26.43
2017-11-03T02:42:25.640Z,28.50
2017-11-03T02:44:53.079Z,26.97
2017-11-03T02:47:20.520Z,25.60
2017-11-03T02:49:47.968Z,26.20
2017-11-03T02:52:15.401Z,24.83
2017-11-03T02:54:43.608Z,24.30
2017-11-03T02:57:11.061Z,25.23
2017-11-03T02:59:38.491Z,24.67
2017-11-03T03:02:05.924Z,28.77
2017-11-03T03:04:33.353Z,28.10
2017-11-03T03:07:01.565Z,26.77
2017-11-03T03:09:28.984Z,30.20
2017-11-03T03:11:56.437Z,26.80
2017-11-03T03:14:23.868Z,25.60
2017-11-03T03:16:51.322Z,25.67
2017-11-03T03:19:18.743Z,24.83
2017-11-03T03:21:46.180Z,24.53
2017-11-03T03:24:13.627Z,25.48
2017-11-03T03:26:41.072Z,25.63
2017-11-03T03:29:08.520Z,24.92
2017-11-03T03:31:35.965Z,25.50
2017-11-03T03:34:03.396Z,25.80
2017-11-03T03:36:31.619Z,28.10
2017-11-03T03:38:59.796Z,24.60
2017-11-03T03:41:27.253Z,21.67
2017-11-03T03:43:54.693Z,22.92
2017-11-03T03:46:22.124Z,23.10
2017-11-03T03:48:49.573Z,22.60
2017-11-03T03:51:17.004Z,21.60
2017-11-03T03:53:44.440Z,21.73
2017-11-03T03:56:11.879Z,23.52
2017-11-03T03:58:39.328Z,25.33
2017-11-03T04:01:06.764Z,26.58
2017-11-03T04:03:34.200Z,25.67
2017-11-03T04:06:01.656Z,25.92
2017-11-03T04:08:29.104Z,24.45
2017-11-03T04:10:56.545Z,26.45
2017-11-03T04:13:23.996Z,22.10
2017-11-03T04:15:52.191Z,23.95
2017-11-03T04:18:19.634Z,24.50
2017-11-03T04:20:47.065Z,22.05
2017-11-03T04:23:14.512Z,23.38
2017-11-03T04:25:41.948Z,22.20
2017-11-03T04:28:09.396Z,24.55
2017-11-03T04:30:36.832Z,20.10
2017-11-03T04:33:04.276Z,23.08
2017-11-03T04:35:31.694Z,22.30
2017-11-03T04:37:59.144Z,23.05
2017-11-03T04:40:26.571Z,22.10
2017-11-03T04:42:54.013Z,22.80
2017-11-03T04:45:22.209Z,23.63
2017-11-03T04:47:49.664Z,22.52
2017-11-03T04:50:17.096Z,22.65
2017-11-03T04:52:44.524Z,22.67
2017-11-03T04:55:11.964Z,22.08
2017-11-03T04:57:39.400Z,20.55
2017-11-03T05:00:06.968Z,19.33
2017-11-03T05:02:34.404Z,20.40
2017-11-03T05:05:01.840Z,18.52
2017-11-03T05:07:29.280Z,21.42
2017-11-03T05:09:56.715Z,21.95
2017-11-03T05:12:24.153Z,21.17
2017-11-03T05:14:51.593Z,21.60
2017-11-03T05:17:19.029Z,20.30
2017-11-03T05:19:46.469Z,19.02
2017-11-03T05:22:14.664Z,20.55
2017-11-03T05:24:42.105Z,22.20
2017-11-03T05:27:09.536Z,22.83
2017-11-03T05:29:37.749Z,23.00
2017-11-03T05:32:05.172Z,24.27
2017-11-03T05:34:32.636Z,21.00
2017-11-03T05:37:00.068Z,25.12
2017-11-03T05:39:27.501Z,26.15
2017-11-03T05:41:54.935Z,23.50
2017-11-03T05:44:22.365Z,23.95
2017-11-03T05:46:49.798Z,23.80
2017-11-03T05:49:17.993Z,26.48
2017-11-03T05:51:45.435Z,27.20
2017-11-03T05:54:13.096Z,25.35
2017-11-03T05:56:40.537Z,27.40
2017-11-03T05:59:07.963Z,23.95
2017-11-03T06:01:35.403Z,26.73
2017-11-03T06:04:02.837Z,26.40
2017-11-03T06:06:31.047Z,23.85
2017-11-03T06:08:58.481Z,24.05
2017-11-03T06:11:25.969Z,25.83
2017-11-03T06:13:53.398Z,24.25
2017-11-03T06:16:20.840Z,25.27
2017-11-03T06:18:48.272Z,25.48
2017-11-03T06:21:15.712Z,26.92
2017-11-03T06:23:43.139Z,21.75
2017-11-03T06:26:10.621Z,22.75
2017-11-03T06:28:38.054Z,23.30
2017-11-03T06:31:05.628Z,24.55
2017-11-03T06:33:33.051Z,23.33
2017-11-03T06:36:00.485Z,22.67
2017-11-03T06:38:27.919Z,22.00
2017-11-03T06:40:55.353Z,24.08
2017-11-03T06:43:22.797Z,24.10
2017-11-03T06:45:50.231Z,22.95
2017-11-03T06:48:17.673Z,25.00
2017-11-03T06:50:45.104Z,22.50
2017-11-03T06:53:13.341Z,25.02
2017-11-03T06:55:40.789Z,22.60
2017-11-03T06:58:08.229Z,23.17
2017-11-03T07:00:35.665Z,23.80
2017-11-03T07:03:03.113Z,26.80
2017-11-03T07:05:30.549Z,27.62
2017-11-03T07:07:57.994Z,25.90
2017-11-03T07:10:25.424Z,29.73
2017-11-03T07:12:52.876Z,28.67
2017-11-03T07:15:21.944Z,30.25
2017-11-03T07:17:49.396Z,33.60
2017-11-03T07:20:16.830Z,31.37
2017-11-03T07:22:44.273Z,25.20
2017-11-03T07:25:11.722Z,26.50
2017-11-03T07:27:39.169Z,27.58
2017-11-03T07:30:06.600Z,27.58
2017-11-03T07:32:34.053Z,24.60
2017-11-03T07:35:01.489Z,25.58
2017-11-03T07:37:28.939Z,24.48
2017-11-03T07:39:57.149Z,25.10
2017-11-03T07:42:24.571Z,23.50
2017-11-03T07:44:52.012Z,24.90
2017-11-03T07:47:20.224Z,22.52
2017-11-03T07:49:47.794Z,24.17
2017-11-03T07:52:15.237Z,24.27
2017-11-03T07:54:42.676Z,24.50
2017-11-03T07:57:10.104Z,23.15
2017-11-03T07:59:37.557Z,24.53
2017-11-03T08:02:04.997Z,24.27
2017-11-03T08:04:32.432Z,22.97
2017-11-03T08:06:59.920Z,21.80
2017-11-03T08:09:27.352Z,24.33
2017-11-03T08:11:54.788Z,21.70
2017-11-03T08:14:22.257Z,23.40
2017-11-03T08:16:49.676Z,23.67
2017-11-03T08:19:17.119Z,23.83
2017-11-03T08:21:44.552Z,24.13
2017-11-03T08:24:11.971Z,23.87
2017-11-03T08:26:39.408Z,24.13
2017-11-03T08:29:06.831Z,24.63
2017-11-03T08:31:34.260Z,26.80
2017-11-03T08:34:01.700Z,23.70
2017-11-03T08:36:29.136Z,25.03
2017-11-03T08:38:56.569Z,24.40
2017-11-03T08:41:24.764Z,24.20
2017-11-03T08:43:52.212Z,24.03
2017-11-03T08:46:19.666Z,24.67
2017-11-03T08:48:47.081Z,25.33
2017-11-03T08:51:14.518Z,27.90
2017-11-03T08:53:41.936Z,25.63
2017-11-03T08:56:09.373Z,24.97
2017-11-03T08:58:36.792Z,23.17
2017-11-03T09:01:04.230Z,22.20
2017-11-03T09:03:31.649Z,22.07
2017-11-03T09:05:59.096Z,23.53
2017-11-03T09:08:26.519Z,22.70
2017-11-03T09:10:53.960Z,23.10
2017-11-03T09:13:21.427Z,21.77
2017-11-03T09:15:48.856Z,21.90
2017-11-03T09:18:16.293Z,21.87
2017-11-03T09:20:43.724Z,24.50
2017-11-03T09:23:11.188Z,24.50
2017-11-03T09:25:38.611Z,22.97
2017-11-03T09:28:06.052Z,23.70
2017-11-03T09:30:33.479Z,26.27
2017-11-03T09:33:00.949Z,24.40
2017-11-03T09:35:28.373Z,23.83
2017-11-03T09:37:56.588Z,26.70
2017-11-03T09:40:24.011Z,26.43
2017-11-03T09:42:51.452Z,26.37
2017-11-03T09:45:18.889Z,27.53
2017-11-03T09:47:46.330Z,25.20
2017-11-03T09:50:13.761Z,23.80
2017-11-03T09:52:41.332Z,24.70
2017-11-03T09:55:08.768Z,25.20
2017-11-03T09:57:36.225Z,26.20
2017-11-03T10:00:03.652Z,27.30
2017-11-03T10:02:31.084Z,24.70
2017-11-03T10:04:58.523Z,24.10
2017-11-03T10:07:25.953Z,25.83
2017-11-03T10:09:53.383Z,26.20
2017-11-03T10:12:20.929Z,23.10
2017-11-03T10:14:48.369Z,23.87
2017-11-03T10:17:15.800Z,24.07
2017-11-03T10:19:43.244Z,23.40
2017-11-03T10:22:10.676Z,26.90
2017-11-03T10:24:38.150Z,24.30
2017-11-03T10:27:05.565Z,24.77
2017-11-03T10:29:33.779Z,25.27
2017-11-03T10:32:01.218Z,24.17
2017-11-03T10:34:28.661Z,24.80
2017-11-03T10:36:56.092Z,24.50
2017-11-03T10:39:23.532Z,27.67
2017-11-03T10:41:50.967Z,26.93
2017-11-03T10:44:18.399Z,25.27
2017-11-03T10:46:45.836Z,25.30
2017-11-03T10:49:14.045Z,26.80
2017-11-03T10:51:41.483Z,26.93
2017-11-03T10:54:08.902Z,26.20
2017-11-03T10:56:36.347Z,25.43
2017-11-03T10:59:03.781Z,26.37
2017-11-03T11:01:31.216Z,24.40
2017-11-03T11:03:58.645Z,26.07
2017-11-03T11:06:26.842Z,25.87
2017-11-03T11:08:54.268Z,25.33
2017-11-03T11:11:21.712Z,27.40
2017-11-03T11:13:49.140Z,26.40
2017-11-03T11:16:16.579Z,26.97
2017-11-03T11:18:44.016Z,26.33
2017-11-03T11:21:11.461Z,25.97
2017-11-03T11:23:38.897Z,27.90
2017-11-03T11:26:06.508Z,26.43
2017-11-03T11:28:33.942Z,26.87
2017-11-03T11:31:01.382Z,27.57
2017-11-03T11:33:28.827Z,28.90
2017-11-03T11:35:56.331Z,27.80
2017-11-03T11:38:23.769Z,27.67
2017-11-03T11:40:51.209Z,26.50
2017-11-03T11:43:18.637Z,27.87
2017-11-03T11:45:46.080Z,26.70
2017-11-03T11:48:13.512Z,27.77
2017-11-03T11:50:40.936Z,28.23
2017-11-03T11:53:09.137Z,29.30
2017-11-03T11:55:36.571Z,28.50
2017-11-03T11:58:04.010Z,26.80
2017-11-03T12:00:31.639Z,26.80
2017-11-03T12:02:59.079Z,26.90
2017-11-03T12:05:26.504Z,25.67
2017-11-03T12:07:53.953Z,26.27
2017-11-03T12:10:21.380Z,23.80
2017-11-03T12:12:48.819Z,26.67
2017-11-03T12:15:16.246Z,26.80
2017-11-03T12:17:43.708Z,26.63
2017-11-03T12:20:11.159Z,27.10
2017-11-03T12:22:38.576Z,27.07
2017-11-03T12:25:06.023Z,27.43
2017-11-03T12:27:33.453Z,27.03
2017-11-03T12:30:00.892Z,26.63
2017-11-03T12:32:28.336Z,27.03
2017-11-03T12:34:55.765Z,29.47
2017-11-03T12:37:23.963Z,27.10
2017-11-03T12:39:51.411Z,25.53
2017-11-03T12:42:18.832Z,26.50
2017-11-03T12:44:46.276Z,25.60
2017-11-03T12:47:13.709Z,29.43
2017-11-03T12:49:41.135Z,26.53
2017-11-03T12:52:08.569Z,27.27
2017-11-03T12:54:36.781Z,28.23
2017-11-03T12:57:04.199Z,28.27
2017-11-03T12:59:31.645Z,27.67
2017-11-03T13:01:59.067Z,28.87
2017-11-03T13:04:26.608Z,27.43
2017-11-03T13:06:54.040Z,26.73
2017-11-03T13:09:21.492Z,27.80
2017-11-03T13:11:48.923Z,27.20
2017-11-03T13:14:16.353Z,27.30
2017-11-03T13:16:43.794Z,28.57
2017-11-03T13:19:11.224Z,28.43
2017-11-03T13:21:38.662Z,26.70
2017-11-03T13:24:06.865Z,29.70
2017-11-03T13:26:34.391Z,26.57
2017-11-03T13:29:01.946Z,27.80
2017-11-03T13:31:29.469Z,27.13
2017-11-03T13:33:57.120Z,26.73
2017-11-03T13:36:24.541Z,29.60
2017-11-03T13:38:51.960Z,28.30
2017-11-03T13:41:19.560Z,27.07
2017-11-03T13:43:47.740Z,26.10
2017-11-03T13:46:15.176Z,28.03
2017-11-03T13:48:42.600Z,28.27
2017-11-03T13:51:10.075Z,30.67
2017-11-03T13:53:37.574Z,27.63
2017-11-03T13:56:05.008Z,25.67
2017-11-03T13:58:32.582Z,28.30
2017-11-03T14:01:00.167Z,28.20
2017-11-03T14:03:27.674Z,28.53
2017-11-03T14:05:55.111Z,30.10
2017-11-03T14:08:22.569Z,29.10
2017-11-03T14:10:51.069Z,28.70
2017-11-03T14:13:18.579Z,29.20
2017-11-03T14:15:46.052Z,27.83
2017-11-03T14:18:13.494Z,27.83
2017-11-03T14:20:41.205Z,29.10
2017-11-03T14:23:08.746Z,28.10
2017-11-03T14:25:36.166Z,29.87
2017-11-03T14:28:03.631Z,30.23
2017-11-03T14:30:31.060Z,28.63
2017-11-03T14:32:58.489Z,29.10
2017-11-03T14:35:26.091Z,27.23
2017-11-03T14:37:53.501Z,27.30
2017-11-03T14:40:20.948Z,28.27
2017-11-03T14:42:49.154Z,27.33
2017-11-03T14:45:16.659Z,28.20
2017-11-03T14:47:44.163Z,25.40
2017-11-03T14:50:11.712Z,25.50
2017-11-03T14:52:39.928Z,25.97
2017-11-03T14:55:07.552Z,26.33
2017-11-03T14:57:34.952Z,25.50
2017-11-03T15:00:02.532Z,25.47
2017-11-03T15:02:30.102Z,25.20
2017-11-03T15:04:57.512Z,26.70
2017-11-03T15:07:25.082Z,26.60
2017-11-03T15:09:52.507Z,25.93
2017-11-03T15:12:19.932Z,26.47
2017-11-03T15:14:47.384Z,25.53
2017-11-03T15:17:14.949Z,24.70
2017-11-03T15:19:43.214Z,26.87
2017-11-03T15:22:10.674Z,26.63
2017-11-03T15:24:38.134Z,26.57
2017-11-03T15:27:05.562Z,27.60
2017-11-03T15:29:33.005Z,27.03
2017-11-03T15:32:00.464Z,25.50
2017-11-03T15:34:27.908Z,26.10
2017-11-03T15:36:55.375Z,25.50
2017-11-03T15:39:22.807Z,26.97
2017-11-03T15:41:50.325Z,26.10
2017-11-03T15:44:17.873Z,26.40
2017-11-03T15:46:46.061Z,26.73
2017-11-03T15:49:13.509Z,26.17
2017-11-03T15:51:40.949Z,26.93
2017-11-03T15:54:08.455Z,26.30
2017-11-03T15:56:35.895Z,27.87
2017-11-03T15:59:03.317Z,27.70
2017-11-03T16:01:30.758Z,28.00
2017-11-03T16:03:58.960Z,30.30
2017-11-03T16:06:26.384Z,27.53
2017-11-03T16:08:53.824Z,29.60
2017-11-03T16:11:21.297Z,28.10
2017-11-03T16:13:49.027Z,27.17
2017-11-03T16:16:16.444Z,29.70
2017-11-03T16:18:43.916Z,28.33
2017-11-03T16:21:11.341Z,28.97
2017-11-03T16:23:38.862Z,29.10
2017-11-03T16:26:06.521Z,28.17
2017-11-03T16:28:34.085Z,27.90
2017-11-03T16:31:01.528Z,28.00
2017-11-03T16:33:28.959Z,29.03
2017-11-03T16:35:56.396Z,28.57
2017-11-03T16:38:23.987Z,29.87
2017-11-03T16:40:51.449Z,27.97
2017-11-03T16:43:18.877Z,28.73
2017-11-03T16:45:46.308Z,34.30
2017-11-03T16:48:13.745Z,31.93
2017-11-03T16:50:41.179Z,30.90
2017-11-03T16:53:08.613Z,32.53
2017-11-03T16:55:36.109Z,32.43
2017-11-03T16:58:03.549Z,31.43
2017-11-03T17:00:31.007Z,31.00
2017-11-03T17:02:58.443Z,28.60
2017-11-03T17:05:25.867Z,28.60
2017-11-03T17:07:53.320Z,30.30
2017-11-03T17:10:20.753Z,33.77
2017-11-03T17:12:48.192Z,35.50
2017-11-03T17:15:15.623Z,31.43
2017-11-03T17:17:43.073Z,35.10
2017-11-03T17:20:10.501Z,33.20
2017-11-03T17:22:38.711Z,31.20
2017-11-03T17:25:06.136Z,32.60
2017-11-03T17:27:33.616Z,30.30
2017-11-03T17:30:02.161Z,32.70
2017-11-03T17:32:29.581Z,30.37
2017-11-03T17:34:57.021Z,32.10
2017-11-03T17:37:24.453Z,30.00
2017-11-03T17:39:51.891Z,30.43
2017-11-03T17:42:19.324Z,30.57
2017-11-03T17:44:46.764Z,29.40
2017-11-03T17:47:14.197Z,31.03
2017-11-03T17:49:41.628Z,31.17
2017-11-03T17:52:09.056Z,31.47
2017-11-03T17:54:36.588Z,32.63
2017-11-03T17:57:04.001Z,38.27
2017-11-03T17:59:31.461Z,43.30
2017-11-03T18:01:58.893Z,41.80
2017-11-03T18:04:26.364Z,41.00
2017-11-03T18:06:53.922Z,51.90
2017-11-03T18:09:21.344Z,46.80
2017-11-03T18:11:48.784Z,42.50
2017-11-03T18:14:16.212Z,37.70
2017-11-03T18:16:43.648Z,38.57
2017-11-03T18:19:11.079Z,37.27
2017-11-03T18:21:38.504Z,38.20
2017-11-03T18:24:06.060Z,39.63
2017-11-03T18:26:33.499Z,39.20
2017-11-03T18:29:00.916Z,38.00
2017-11-03T18:31:28.350Z,41.27
2017-11-03T18:33:55.832Z,40.60
2017-11-03T18:36:23.248Z,39.47
2017-11-03T18:38:50.675Z,40.80
2017-11-03T18:41:18.104Z,38.40
2017-11-03T18:43:46.309Z,39.17
2017-11-03T18:46:13.736Z,42.40
2017-11-03T18:48:41.176Z,42.53
2017-11-03T18:51:08.592Z,44.70
2017-11-03T18:53:36.019Z,38.70
2017-11-03T18:56:03.613Z,40.00
2017-11-03T18:58:31.041Z,42.23
2017-11-03T19:00:58.485Z,40.37
2017-11-03T19:03:26.119Z,39.57
2017-11-03T19:05:53.699Z,42.63
2017-11-03T19:08:21.991Z,38.97
2017-11-03T19:10:50.214Z,39.53
2017-11-03T19:13:17.645Z,38.73
2017-11-03T19:15:45.073Z,34.80
2017-11-03T19:18:12.536Z,38.47
2017-11-03T19:20:39.952Z,46.33
2017-11-03T19:23:07.376Z,36.47
2017-11-03T19:25:34.822Z,41.00
2017-11-03T19:28:02.237Z,39.93
2017-11-03T19:30:30.445Z,31.43
2017-11-03T19:32:57.873Z,31.97
2017-11-03T19:35:25.311Z,33.73
2017-11-03T19:37:52.756Z,37.83
2017-11-03T19:40:20.184Z,38.93
2017-11-03T19:42:47.614Z,38.73
2017-11-03T19:45:15.054Z,31.50
2017-11-03T19:47:43.260Z,32.80
2017-11-03T19:50:10.699Z,34.90
2017-11-03T19:52:38.124Z,41.03
2017-11-03T19:55:05.581Z,30.07
2017-11-03T19:57:33.008Z,29.50
2017-11-03T20:00:00.440Z,28.50
2017-11-03T20:02:27.871Z,30.00
2017-11-03T20:04:55.304Z,38.53
2017-11-03T20:07:23.525Z,31.20
2017-11-03T20:09:50.981Z,32.95
2017-11-03T20:12:18.430Z,35.53
2017-11-03T20:14:45.866Z,31.50
2017-11-03T20:17:13.304Z,30.77
2017-11-03T20:19:40.740Z,33.10
2017-11-03T20:22:08.177Z,32.77
2017-11-03T20:24:35.609Z,32.17
2017-11-03T20:27:03.044Z,29.37
2017-11-03T20:29:30.475Z,31.07
2017-11-03T20:31:58.677Z,33.37
2017-11-03T20:34:26.113Z,34.50
2017-11-03T20:36:53.548Z,30.70
2017-11-03T20:39:21.746Z,33.17
2017-11-03T20:41:49.192Z,27.90
2017-11-03T20:44:16.615Z,29.37
2017-11-03T20:46:44.047Z,26.13
2017-11-03T20:49:11.490Z,25.02
2017-11-03T20:51:38.916Z,27.13
2017-11-03T20:54:06.352Z,30.40
2017-11-03T20:56:33.769Z,27.50
2017-11-03T20:59:01.210Z,31.00
2017-11-03T21:01:28.652Z,26.05
2017-11-03T21:03:56.101Z,25.10
2017-11-03T21:06:24.306Z,26.12
2017-11-03T21:08:51.757Z,28.40
2017-11-03T21:11:19.181Z,26.83
2017-11-03T21:13:46.620Z,25.75
2017-11-03T21:16:14.044Z,25.30
2017-11-03T21:18:41.509Z,25.05
2017-11-03T21:21:08.915Z,23.87
2017-11-03T21:23:36.372Z,26.65
2017-11-03T21:26:03.801Z,27.42
2017-11-03T21:28:31.228Z,25.65
2017-11-03T21:30:58.676Z,24.70
2017-11-03T21:33:26.099Z,26.52
2017-11-03T21:35:53.532Z,22.87
2017-11-03T21:38:20.964Z,24.65
2017-11-03T21:40:48.409Z,28.58
2017-11-03T21:43:15.850Z,26.20
2017-11-03T21:45:43.284Z,27.95
2017-11-03T21:48:10.716Z,25.98
2017-11-03T21:50:38.160Z,28.25
2017-11-03T21:53:06.353Z,28.30
2017-11-03T21:55:33.813Z,25.45
2017-11-03T21:58:01.233Z,28.20
2017-11-03T22:00:28.660Z,27.45
2017-11-03T22:02:56.110Z,26.00
2017-11-03T22:05:23.540Z,24.85
2017-11-03T22:07:50.980Z,31.33
2017-11-03T22:10:18.419Z,26.58
2017-11-03T22:12:45.848Z,25.52
2017-11-03T22:15:13.279Z,26.65
2017-11-03T22:17:40.724Z,24.60
2017-11-03T22:20:08.163Z,27.95
2017-11-03T22:22:36.377Z,26.75
2017-11-03T22:25:03.801Z,28.08
2017-11-03T22:27:31.241Z,27.87
2017-11-03T22:29:58.673Z,28.17
2017-11-03T22:32:26.120Z,25.52
2017-11-03T22:34:53.554Z,24.52
2017-11-03T22:37:20.996Z,26.62
2017-11-03T22:39:48.420Z,26.77
2017-11-03T22:42:16.651Z,24.77
2017-11-03T22:44:44.080Z,25.12
2017-11-03T22:47:11.508Z,27.50
2017-11-03T22:49:38.944Z,26.92
2017-11-03T22:52:06.367Z,27.33
2017-11-03T22:54:33.821Z,27.62
2017-11-03T22:57:01.232Z,31.25
2017-11-03T22:59:29.448Z,31.12
2017-11-03T23:01:56.904Z,27.13
2017-11-03T23:04:24.340Z,27.35
2017-11-03T23:06:51.768Z,23.25
2017-11-03T23:09:19.209Z,31.80
2017-11-03T23:11:46.636Z,30.50
2017-11-03T23:14:14.072Z,31.08
2017-11-03T23:16:42.264Z,32.13
2017-11-03T23:19:09.704Z,32.63
2017-11-03T23:21:37.137Z,33.17
2017-11-03T23:24:04.573Z,31.58
2017-11-03T23:26:32.020Z,29.75
2017-11-03T23:28:59.465Z,30.62
2017-11-03T23:31:26.893Z,32.80
2017-11-03T23:33:54.320Z,30.52
2017-11-03T23:36:21.756Z,26.08
2017-11-03T23:38:49.984Z,26.70
2017-11-03T23:41:17.444Z,24.37
2017-11-03T23:43:44.856Z,24.87
2017-11-03T23:46:12.294Z,25.48
2017-11-03T23:48:39.716Z,24.30
2017-11-03T23:51:07.163Z,27.52
2017-11-03T23:53:34.596Z,25.15
2017-11-03T23:56:02.027Z,26.45
2017-11-03T23:58:30.224Z,26.40
